Time;durP1;ratioP1;P1;durP2;ratioP2;P2;SDS_P1;SDS_P2;PMS_P1;PMS_P2;Temp;Humidity;BMP_temperature;BMP_pressure;BME280_temperature;BME280_humidity;BME280_pressure;Samples;Min_cycle;Max_cycle;Signal;HPM_P1;HPM_P2
2020/12/20 00:01:42;;;;;;;22.98;16.30;;;5.60;99.90;;;;;;5020510;28;20029;-76
2020/12/20 00:04:12;;;;;;;27.70;18.42;;;5.60;99.90;;;;;;5020111;28;20147;-75
2020/12/20 00:06:44;;;;;;;25.60;17.25;;;5.50;99.90;;;;;;5020921;28;20033;-76
2020/12/20 00:09:14;;;;;;;27.38;18.52;;;5.50;99.90;;;;;;5020678;28;20030;-76
2020/12/20 00:11:41;;;;;;;26.77;17.33;;;5.50;99.90;;;;;;5054681;28;20450;-77
2020/12/20 00:14:26;;;;;;;24.77;17.48;;;5.50;99.90;;;;;;5040208;28;20041;-78
2020/12/20 00:16:53;;;;;;;21.77;16.00;;;5.50;99.90;;;;;;5020419;28;20524;-75
2020/12/20 00:19:19;;;;;;;24.42;17.25;;;5.50;99.90;;;;;;5022585;28;20108;-76
2020/12/20 00:21:45;;;;;;;24.70;17.48;;;5.50;99.90;;;;;;5026858;28;20138;-75
2020/12/20 00:24:13;;;;;;;24.38;17.05;;;5.50;99.90;;;;;;5025123;28;20034;-78
2020/12/20 00:26:42;;;;;;;23.65;16.85;;;5.50;99.90;;;;;;5025425;28;20048;-75
2020/12/20 00:29:10;;;;;;;23.83;17.33;;;5.50;99.90;;;;;;5027156;28;20459;-75
2020/12/20 00:31:38;;;;;;;25.52;17.10;;;5.50;99.90;;;;;;5026094;28;20033;-75
2020/12/20 00:34:08;;;;;;;25.55;17.08;;;5.50;99.90;;;;;;5026230;28;20033;-76
2020/12/20 00:36:33;;;;;;;24.50;16.83;;;5.50;99.90;;;;;;5058520;28;20038;-75
2020/12/20 00:39:00;;;;;;;24.50;17.23;;;5.50;99.90;;;;;;5025765;28;20052;-75
2020/12/20 00:41:26;;;;;;;26.80;18.92;;;5.50;99.90;;;;;;5024358;28;20084;-76
2020/12/20 00:43:54;;;;;;;25.95;18.20;;;5.50;99.90;;;;;;5023964;28;20588;-75
2020/12/20 00:46:22;;;;;;;24.75;18.23;;;5.50;99.90;;;;;;5024471;28;20038;-75
2020/12/20 00:48:48;;;;;;;31.10;20.13;;;5.50;99.90;;;;;;5024078;28;20032;-75
2020/12/20 00:51:19;;;;;;;24.50;17.23;;;5.50;99.90;;;;;;5026364;28;20025;-75
2020/12/20 00:53:47;;;;;;;22.63;16.75;;;5.50;99.90;;;;;;5024910;28;20037;-75
2020/12/20 00:56:14;;;;;;;24.13;17.20;;;5.50;99.90;;;;;;5026994;28;20040;-75
2020/12/20 00:58:39;;;;;;;27.88;18.80;;;5.50;99.90;;;;;;5024552;28;20061;-75
2020/12/20 01:01:05;;;;;;;26.67;16.95;;;5.60;99.90;;;;;;5024789;28;20419;-75
2020/12/20 01:03:31;;;;;;;23.08;17.15;;;5.60;99.90;;;;;;5024097;28;20049;-75
2020/12/20 01:06:00;;;;;;;23.88;17.38;;;5.60;99.90;;;;;;5026141;28;20099;-75
2020/12/20 01:08:28;;;;;;;22.67;16.75;;;5.60;99.90;;;;;;5026594;28;20029;-75
2020/12/20 01:10:56;;;;;;;24.75;18.02;;;5.60;99.90;;;;;;5026440;28;20037;-75
2020/12/20 01:13:24;;;;;;;26.17;18.77;;;5.60;99.90;;;;;;5057005;28;20112;-75
2020/12/20 01:15:52;;;;;;;22.92;16.50;;;5.60;99.90;;;;;;5057256;28;20036;-75
2020/12/20 01:18:24;;;;;;;25.55;18.35;;;5.70;99.90;;;;;;5025618;28;20032;-75
2020/12/20 01:20:52;;;;;;;;;;;5.70;99.90;;;;;;5024681;28;20488;-75
2020/12/20 01:23:18;;;;;;;27.00;18.67;;;5.60;99.90;;;;;;5025611;28;19935;-75
2020/12/20 01:25:43;;;;;;;22.33;16.10;;;5.60;99.90;;;;;;5026552;28;20482;-75
2020/12/20 01:28:09;;;;;;;24.00;17.50;;;5.60;99.90;;;;;;5027699;28;20459;-75
2020/12/20 01:30:35;;;;;;;25.90;18.60;;;5.60;99.90;;;;;;5027350;28;20093;-75
2020/12/20 01:33:03;;;;;;;23.27;17.10;;;5.60;99.90;;;;;;5027464;28;20084;-75
2020/12/20 01:35:35;;;;;;;22.70;17.38;;;5.70;99.90;;;;;;5026021;28;20026;-75
2020/12/20 01:38:01;;;;;;;23.38;17.35;;;5.70;99.90;;;;;;5025501;28;20025;-76
2020/12/20 01:40:29;;;;;;;24.63;17.63;;;5.70;99.90;;;;;;5027147;28;20040;-75
2020/12/20 01:43:00;;;;;;;29.25;20.10;;;5.70;99.90;;;;;;5024525;28;20769;-75
2020/12/20 01:45:32;;;;;;;27.83;18.55;;;5.60;99.90;;;;;;5025869;28;20664;-75
2020/12/20 01:48:00;;;;;;;27.48;18.02;;;5.60;99.90;;;;;;5024053;28;20101;-75
2020/12/20 01:50:26;;;;;;;24.55;17.65;;;5.60;99.90;;;;;;5040242;28;20113;-75
2020/12/20 01:52:51;;;;;;;21.70;16.40;;;5.60;99.90;;;;;;5023876;28;20482;-76
2020/12/20 01:55:20;;;;;;;22.73;16.13;;;5.60;99.90;;;;;;5023909;28;20041;-76
2020/12/20 01:57:48;;;;;;;23.77;17.25;;;5.60;99.90;;;;;;5056879;28;20524;-75
2020/12/20 02:00:16;;;;;;;23.08;16.83;;;5.60;99.90;;;;;;5026600;28;20033;-78
2020/12/20 02:02:42;;;;;;;24.42;17.08;;;5.60;99.90;;;;;;5025485;28;20033;-75
2020/12/20 02:05:12;;;;;;;30.02;19.60;;;5.60;99.90;;;;;;5024196;28;20071;-75
2020/12/20 02:07:38;;;;;;;29.85;19.90;;;5.50;99.90;;;;;;5021773;28;20029;-75
2020/12/20 02:10:04;;;;;;;25.00;17.35;;;5.40;99.90;;;;;;5029839;28;20021;-75
2020/12/20 02:12:32;;;;;;;23.63;17.38;;;5.40;99.90;;;;;;5061603;28;20030;-75
2020/12/20 02:15:00;;;;;;;24.92;18.23;;;5.40;99.90;;;;;;5029789;28;20037;-75
2020/12/20 02:17:25;;;;;;;22.55;16.70;;;5.40;99.90;;;;;;5029089;28;20481;-75
2020/12/20 02:19:51;;;;;;;26.05;19.60;;;5.50;99.90;;;;;;5029154;28;20112;-75
2020/12/20 02:22:19;;;;;;;27.00;19.63;;;5.50;99.90;;;;;;5029729;28;20537;-75
2020/12/20 02:24:49;;;;;;;26.13;18.50;;;5.50;99.90;;;;;;5028517;28;20037;-75
2020/12/20 02:27:15;;;;;;;29.27;19.48;;;5.50;99.90;;;;;;5027046;28;20036;-75
2020/12/20 02:29:43;;;;;;;26.08;18.60;;;5.50;99.90;;;;;;5028785;28;20034;-75
2020/12/20 02:32:11;;;;;;;30.23;19.80;;;5.50;99.90;;;;;;5011633;28;20025;-75
2020/12/20 02:34:36;;;;;;;26.17;19.13;;;5.50;99.90;;;;;;5046171;28;20044;-76
2020/12/20 02:37:07;;;;;;;24.23;17.20;;;5.50;99.90;;;;;;5029642;28;20033;-75
2020/12/20 02:39:33;;;;;;;25.17;18.27;;;5.40;99.90;;;;;;5029580;28;20136;-75
2020/12/20 02:41:58;;;;;;;28.38;19.08;;;5.40;99.90;;;;;;5010495;28;20120;-75
2020/12/20 02:44:26;;;;;;;27.52;18.25;;;5.50;99.90;;;;;;5028383;28;20118;-76
2020/12/20 02:46:52;;;;;;;29.45;19.35;;;5.50;99.90;;;;;;5045529;28;20030;-76
2020/12/20 02:49:17;;;;;;;29.40;19.52;;;5.40;99.90;;;;;;5029484;28;20079;-75
2020/12/20 02:51:43;;;;;;;28.38;19.77;;;5.40;99.90;;;;;;5029151;28;20022;-75
2020/12/20 02:54:12;;;;;;;23.02;16.90;;;5.30;99.90;;;;;;5029289;28;20101;-75
2020/12/20 02:56:46;;;;;;;25.17;18.13;;;5.40;99.90;;;;;;5059589;28;20028;-76
2020/12/20 02:59:14;;;;;;;27.55;19.13;;;5.30;99.90;;;;;;5029436;28;20041;-76
2020/12/20 03:01:42;;;;;;;26.00;17.55;;;5.40;99.90;;;;;;5027138;28;20034;-75
2020/12/20 03:04:10;;;;;;;25.63;17.90;;;5.40;99.90;;;;;;5027412;28;20052;-75
2020/12/20 03:06:38;;;;;;;23.35;17.38;;;5.40;99.90;;;;;;5012128;28;20029;-75
2020/12/20 03:09:06;;;;;;;24.55;17.35;;;5.40;99.90;;;;;;5026639;28;20029;-75
2020/12/20 03:11:34;;;;;;;25.13;17.90;;;5.40;99.90;;;;;;5008942;28;20029;-75
2020/12/20 03:13:59;;;;;;;26.30;17.80;;;5.40;99.90;;;;;;5028255;28;20033;-75
2020/12/20 03:16:27;;;;;;;24.60;18.10;;;5.40;99.90;;;;;;5060836;28;20026;-75
2020/12/20 03:18:55;;;;;;;27.25;17.75;;;5.40;99.90;;;;;;5028039;28;20332;-75
2020/12/20 03:21:23;;;;;;;28.05;18.20;;;5.40;99.90;;;;;;5026636;28;20029;-75
2020/12/20 03:23:51;;;;;;;26.35;17.73;;;5.50;99.90;;;;;;5027333;28;20033;-75
2020/12/20 03:26:23;;;;;;;24.10;17.05;;;5.50;99.90;;;;;;5027394;28;20094;-75
2020/12/20 03:28:51;;;;;;;23.65;16.50;;;5.50;99.90;;;;;;5025358;28;20082;-76
2020/12/20 03:31:17;;;;;;;22.98;16.35;;;5.50;99.90;;;;;;5029329;28;20025;-75
2020/12/20 03:33:45;;;;;;;24.25;16.30;;;5.50;99.90;;;;;;5028471;28;20022;-75
2020/12/20 03:36:13;;;;;;;24.30;17.45;;;5.50;99.90;;;;;;5027987;28;20453;-75
2020/12/20 03:38:38;;;;;;;25.05;16.52;;;5.50;99.90;;;;;;5028282;28;20079;-75
2020/12/20 03:41:06;;;;;;;25.38;18.23;;;5.50;99.90;;;;;;5025870;28;20052;-76
2020/12/20 03:43:35;;;;;;;25.38;17.27;;;5.50;99.90;;;;;;5026594;28;20117;-75
2020/12/20 03:46:05;;;;;;;24.92;16.25;;;5.60;99.90;;;;;;5025658;28;20053;-75
2020/12/20 03:48:31;;;;;;;22.33;15.88;;;5.60;99.90;;;;;;5026426;28;20034;-75
2020/12/20 03:50:57;;;;;;;22.80;16.02;;;5.60;99.90;;;;;;5026421;28;20018;-75
2020/12/20 03:53:25;;;;;;;22.08;15.93;;;5.60;99.90;;;;;;5020941;28;20025;-75
2020/12/20 03:55:53;;;;;;;22.95;16.42;;;5.50;99.90;;;;;;5026325;28;20123;-76
2020/12/20 03:58:21;;;;;;;20.83;15.10;;;5.50;99.90;;;;;;5024757;28;20115;-75
2020/12/20 04:00:49;;;;;;;21.92;15.40;;;5.50;99.90;;;;;;5026568;28;20026;-75
2020/12/20 04:03:17;;;;;;;24.10;16.58;;;5.50;99.90;;;;;;5057890;28;20034;-75
2020/12/20 04:05:42;;;;;;;22.85;15.52;;;5.40;99.90;;;;;;5057454;28;20025;-75
2020/12/20 04:08:08;;;;;;;24.42;16.70;;;5.50;99.90;;;;;;5025389;28;20893;-75
2020/12/20 04:10:34;;;;;;;23.92;16.42;;;5.50;99.90;;;;;;5058174;28;20038;-76
2020/12/20 04:13:00;;;;;;;24.20;16.10;;;5.60;99.90;;;;;;5021120;28;20030;-75
2020/12/20 04:15:27;;;;;;;22.33;15.73;;;5.60;99.90;;;;;;5026744;28;20039;-76
2020/12/20 04:17:58;;;;;;;24.52;16.77;;;5.60;99.90;;;;;;5025210;28;20045;-75
2020/12/20 04:20:23;;;;;;;23.20;16.35;;;5.60;99.90;;;;;;5025641;28;20375;-75
2020/12/20 04:22:49;;;;;;;25.13;17.77;;;5.50;99.90;;;;;;5025495;28;20033;-75
2020/12/20 04:25:17;;;;;;;26.80;17.48;;;5.50;99.90;;;;;;5024582;28;20021;-75
2020/12/20 04:27:43;;;;;;;26.00;17.73;;;5.40;99.90;;;;;;5023727;28;20113;-75
2020/12/20 04:30:11;;;;;;;23.67;16.10;;;5.40;99.90;;;;;;5024491;28;20442;-75
2020/12/20 04:32:41;;;;;;;22.35;15.68;;;5.40;99.90;;;;;;5024892;28;20035;-75
2020/12/20 04:35:09;;;;;;;24.77;16.15;;;5.40;99.90;;;;;;5025915;28;20095;-75
2020/12/20 04:37:37;;;;;;;23.48;16.27;;;5.40;99.90;;;;;;5024576;28;20463;-75
2020/12/20 04:40:07;;;;;;;24.30;15.43;;;5.40;99.90;;;;;;5025416;28;20068;-75
2020/12/20 04:42:35;;;;;;;24.70;16.25;;;5.40;99.90;;;;;;5023745;28;20471;-75
2020/12/20 04:45:04;;;;;;;25.60;16.05;;;5.40;99.90;;;;;;5056283;28;20053;-75
2020/12/20 04:47:36;;;;;;;26.73;17.25;;;5.40;99.90;;;;;;5025084;28;20029;-75
2020/12/20 04:50:05;;;;;;;26.73;17.83;;;5.40;99.90;;;;;;5039254;28;20493;-75
2020/12/20 04:52:35;;;;;;;30.17;18.75;;;5.40;99.90;;;;;;5025456;28;20038;-75
2020/12/20 04:55:02;;;;;;;28.40;18.95;;;5.40;99.90;;;;;;5023095;28;20021;-75
2020/12/20 04:57:27;;;;;;;27.55;18.20;;;5.30;99.90;;;;;;5025208;28;20494;-75
2020/12/20 04:59:53;;;;;;;26.55;17.80;;;5.30;99.90;;;;;;5056238;28;20038;-75
2020/12/20 05:02:19;;;;;;;28.20;18.85;;;5.40;99.90;;;;;;5057130;28;20445;-75
2020/12/20 05:04:46;;;;;;;29.35;19.17;;;5.30;99.90;;;;;;5023185;28;20095;-75
2020/12/20 05:07:14;;;;;;;27.73;18.70;;;5.30;99.90;;;;;;5024179;28;20025;-75
2020/12/20 05:09:47;;;;;;;29.77;18.52;;;5.30;99.90;;;;;;5024686;28;20039;-75
2020/12/20 05:12:33;;;;;;;31.20;18.88;;;5.30;99.90;;;;;;5014202;28;20025;-75
2020/12/20 05:15:02;;;;;;;24.90;16.60;;;5.30;99.90;;;;;;5026388;28;20025;-75
2020/12/20 05:17:30;;;;;;;24.10;16.35;;;5.20;99.90;;;;;;5026220;28;20390;-76
2020/12/20 05:19:56;;;;;;;27.90;16.80;;;5.20;99.90;;;;;;5022043;28;20060;-75
2020/12/20 05:22:22;;;;;;;23.75;16.23;;;5.20;99.90;;;;;;5023502;28;20479;-75
2020/12/20 05:24:49;;;;;;;26.73;16.30;;;5.30;99.90;;;;;;5023991;28;20530;-75
2020/12/20 05:27:30;;;;;;;27.67;18.20;;;5.30;99.90;;;;;;5055666;28;20140;-75
2020/12/20 05:29:56;;;;;;;28.33;18.20;;;5.30;99.90;;;;;;5025821;28;20026;-75
2020/12/20 05:32:32;;;;;;;24.42;16.40;;;5.30;99.90;;;;;;5004833;28;20036;-75
2020/12/20 05:35:07;;;;;;;24.80;16.75;;;5.30;99.90;;;;;;5037398;28;20442;-75
2020/12/20 05:37:33;;;;;;;27.15;17.30;;;5.30;99.90;;;;;;5055309;28;20136;-75
2020/12/20 05:40:00;;;;;;;26.63;16.95;;;5.30;99.90;;;;;;5021723;28;20105;-75
2020/12/20 05:42:25;;;;;;;27.05;17.67;;;5.30;99.90;;;;;;5021709;28;20045;-75
2020/12/20 05:45:11;;;;;;;28.13;17.77;;;5.30;99.90;;;;;;5026935;28;20056;-75
2020/12/20 05:47:38;;;;;;;25.70;16.65;;;5.40;99.90;;;;;;5027270;28;20045;-75
2020/12/20 05:50:10;;;;;;;27.20;17.45;;;5.40;99.90;;;;;;5028038;28;20572;-75
2020/12/20 05:52:38;;;;;;;;;;;5.40;99.90;;;;;;5056286;28;20569;-75
2020/12/20 05:55:13;;;;;;;27.73;16.70;;;5.30;99.90;;;;;;5026982;28;19917;-75
2020/12/20 05:57:42;;;;;;;25.70;16.70;;;5.30;99.90;;;;;;5029995;28;20486;-75
2020/12/20 06:00:09;;;;;;;25.65;17.00;;;5.30;99.90;;;;;;5028566;28;20191;-75
2020/12/20 06:02:37;;;;;;;29.85;18.13;;;5.30;99.90;;;;;;5028718;28;20036;-75
2020/12/20 06:05:03;;;;;;;26.35;17.25;;;5.30;99.90;;;;;;5025469;28;20654;-75
2020/12/20 06:07:31;;;;;;;27.13;17.48;;;5.30;99.90;;;;;;5060717;28;20057;-75
2020/12/20 06:10:00;;;;;;;26.83;17.33;;;5.30;99.90;;;;;;5025486;28;20036;-75
2020/12/20 06:12:32;;;;;;;25.98;17.25;;;5.20;99.90;;;;;;5027700;28;20298;-75
2020/12/20 06:15:03;;;;;;;28.10;17.20;;;5.20;99.90;;;;;;5027688;28;20038;-75
2020/12/20 06:17:31;;;;;;;29.90;18.80;;;5.30;99.90;;;;;;5041503;28;20092;-75
2020/12/20 06:20:06;;;;;;;27.38;16.92;;;5.30;99.90;;;;;;5042618;28;20029;-75
2020/12/20 06:22:39;;;;;;;29.10;18.08;;;5.30;99.90;;;;;;5041400;28;20120;-76
2020/12/20 06:25:06;;;;;;;31.10;18.60;;;5.30;99.90;;;;;;5042651;28;20134;-75
2020/12/20 06:27:34;;;;;;;29.73;17.40;;;5.30;99.90;;;;;;5058891;28;20041;-75
2020/12/20 06:30:06;;;;;;;36.20;21.00;;;5.30;99.90;;;;;;5042964;28;20021;-75
2020/12/20 06:32:44;;;;;;;26.25;14.90;;;5.20;99.90;;;;;;5028703;28;20037;-75
2020/12/20 06:35:12;;;;;;;34.25;19.85;;;5.20;99.90;;;;;;5057492;28;20063;-75
2020/12/20 06:37:44;;;;;;;32.95;20.58;;;5.10;99.90;;;;;;5059507;28;20033;-75
2020/12/20 06:40:13;;;;;;;28.60;17.83;;;5.10;99.90;;;;;;5043671;28;20100;-75
2020/12/20 06:42:43;;;;;;;31.15;18.77;;;5.10;99.90;;;;;;5059796;28;20026;-75
2020/12/20 06:45:18;;;;;;;35.05;20.13;;;5.10;99.90;;;;;;5026979;28;20080;-75
2020/12/20 06:47:51;;;;;;;27.73;18.15;;;5.10;99.90;;;;;;5044572;28;20054;-75
2020/12/20 06:50:35;;;;;;;28.77;18.02;;;5.10;99.90;;;;;;5059056;28;20021;-75
2020/12/20 06:53:01;;;;;;;28.05;17.50;;;5.10;99.90;;;;;;5028026;28;20021;-75
2020/12/20 06:55:29;;;;;;;34.85;19.15;;;5.10;99.90;;;;;;5022820;28;20475;-75
2020/12/20 06:58:04;;;;;;;28.35;18.35;;;5.10;99.90;;;;;;5027285;28;20046;-75
2020/12/20 07:00:54;;;;;;;32.22;19.20;;;5.10;99.90;;;;;;5025710;28;20025;-75
2020/12/20 07:03:25;;;;;;;30.45;18.17;;;5.10;99.90;;;;;;5026573;28;20437;-75
2020/12/20 07:05:51;;;;;;;28.63;18.33;;;5.10;99.90;;;;;;5027304;28;20036;-75
2020/12/20 07:08:32;;;;;;;31.23;19.10;;;5.20;99.90;;;;;;5027883;28;20025;-75
2020/12/20 07:11:01;;;;;;;25.92;17.35;;;5.20;99.90;;;;;;5058384;28;20017;-75
2020/12/20 07:13:33;;;;;;;31.27;19.23;;;5.20;99.90;;;;;;5041545;28;20502;-75
2020/12/20 07:16:23;;;;;;;28.85;17.65;;;5.20;99.90;;;;;;5027238;28;20052;-75
2020/12/20 07:19:00;;;;;;;27.27;16.80;;;5.20;99.90;;;;;;5038638;28;20025;-75
2020/12/20 07:21:29;;;;;;;34.50;20.20;;;5.20;99.90;;;;;;5054656;28;20030;-75
2020/12/20 07:24:07;;;;;;;29.27;17.70;;;5.20;99.90;;;;;;5025213;28;20033;-75
2020/12/20 07:26:35;;;;;;;29.48;18.23;;;5.20;99.90;;;;;;5025468;28;20075;-75
2020/12/20 07:29:04;;;;;;;35.78;21.25;;;5.20;99.90;;;;;;5024904;28;20529;-75
2020/12/20 07:31:32;;;;;;;34.58;20.50;;;5.30;99.90;;;;;;5024426;28;20036;-75
2020/12/20 07:33:58;;;;;;;34.97;22.23;;;5.30;99.90;;;;;;5023991;28;20064;-75
2020/12/20 07:36:28;;;;;;;30.30;19.50;;;5.30;99.90;;;;;;5025157;28;20588;-75
2020/12/20 07:38:54;;;;;;;34.42;19.85;;;5.30;99.90;;;;;;5025217;28;20026;-75
2020/12/20 07:41:24;;;;;;;29.52;18.90;;;5.30;99.90;;;;;;5041022;28;20064;-75
2020/12/20 07:43:52;;;;;;;28.90;17.63;;;5.20;99.90;;;;;;5058758;28;20018;-75
2020/12/20 07:46:20;;;;;;;28.67;17.90;;;5.30;99.90;;;;;;5027454;28;20471;-75
2020/12/20 07:48:48;;;;;;;30.40;18.63;;;5.30;99.90;;;;;;5026478;28;20110;-75
2020/12/20 07:51:18;;;;;;;28.65;18.48;;;5.30;99.90;;;;;;5024955;28;20032;-75
2020/12/20 07:53:44;;;;;;;31.08;19.00;;;5.30;99.90;;;;;;5026008;28;20033;-75
2020/12/20 07:56:10;;;;;;;30.42;18.83;;;5.30;99.90;;;;;;5026052;28;20025;-75
2020/12/20 07:58:35;;;;;;;33.20;19.70;;;5.30;99.90;;;;;;5021614;28;20033;-75
2020/12/20 08:01:05;;;;;;;32.40;18.85;;;5.30;99.90;;;;;;5041424;28;20094;-75
2020/12/20 08:03:34;;;;;;;32.72;19.05;;;5.30;99.90;;;;;;5026059;28;20059;-75
2020/12/20 08:06:06;;;;;;;33.80;20.00;;;5.30;99.90;;;;;;5005660;28;20176;-75
2020/12/20 08:08:32;;;;;;;35.17;20.98;;;5.30;99.90;;;;;;5025749;28;20097;-75
2020/12/20 08:11:01;;;;;;;35.92;20.90;;;5.20;99.90;;;;;;5025228;28;20037;-75
2020/12/20 08:13:27;;;;;;;32.03;18.90;;;5.20;99.90;;;;;;5024126;28;20052;-75
2020/12/20 08:15:53;;;;;;;32.85;19.92;;;5.20;99.90;;;;;;5027055;28;20419;-75
2020/12/20 08:18:20;;;;;;;33.50;20.10;;;5.20;99.90;;;;;;5026421;28;20363;-75
2020/12/20 08:20:46;;;;;;;30.65;18.95;;;5.20;99.90;;;;;;5027769;28;20091;-75
2020/12/20 08:23:12;;;;;;;29.63;18.92;;;5.20;99.90;;;;;;5061190;28;20033;-75
2020/12/20 08:25:42;;;;;;;28.70;18.13;;;5.20;99.90;;;;;;5009529;28;20037;-75
2020/12/20 08:28:10;;;;;;;27.88;17.98;;;5.20;99.90;;;;;;5028337;28;20032;-75
2020/12/20 08:30:37;;;;;;;33.35;21.02;;;5.30;99.90;;;;;;5056393;28;20021;-75
2020/12/20 08:33:05;;;;;;;29.08;18.85;;;5.20;99.90;;;;;;5028473;28;20026;-75
2020/12/20 08:35:33;;;;;;;31.75;19.45;;;5.20;99.90;;;;;;5028117;28;20033;-75
2020/12/20 08:38:03;;;;;;;32.25;19.42;;;5.30;99.90;;;;;;5028079;28;20036;-75
2020/12/20 08:40:31;;;;;;;31.05;19.08;;;5.20;99.90;;;;;;5026759;28;20029;-75
2020/12/20 08:42:58;;;;;;;30.80;19.15;;;5.30;99.90;;;;;;5042110;28;20447;-75
2020/12/20 08:45:24;;;;;;;30.80;19.02;;;5.30;99.90;;;;;;5024385;28;20034;-75
2020/12/20 08:47:52;;;;;;;26.63;17.15;;;5.30;99.90;;;;;;5028587;28;20026;-75
2020/12/20 08:50:25;;;;;;;33.10;19.55;;;5.30;99.90;;;;;;5042692;28;20045;-75
2020/12/20 08:53:03;;;;;;;28.45;17.30;;;5.30;99.90;;;;;;5008956;28;20029;-75
2020/12/20 08:55:29;;;;;;;29.60;17.23;;;5.40;99.90;;;;;;5026945;28;20056;-75
2020/12/20 08:58:07;;;;;;;27.98;17.63;;;5.40;99.90;;;;;;5059351;28;20109;-75
2020/12/20 09:00:35;;;;;;;31.55;17.73;;;5.40;99.90;;;;;;5007987;28;20075;-75
2020/12/20 09:03:02;;;;;;;33.13;20.70;;;5.40;99.90;;;;;;5022835;28;20022;-75
2020/12/20 09:05:30;;;;;;;32.35;19.13;;;5.40;99.90;;;;;;5025695;28;20051;-75
2020/12/20 09:07:59;;;;;;;30.55;18.23;;;5.40;99.90;;;;;;5026123;28;20513;-75
2020/12/20 09:10:34;;;;;;;28.92;18.15;;;5.40;99.90;;;;;;5056864;28;20144;-75
2020/12/20 09:13:05;;;;;;;32.22;19.30;;;5.40;99.90;;;;;;5041964;28;20025;-75
2020/12/20 09:15:30;;;;;;;31.60;19.63;;;5.40;99.90;;;;;;5059272;28;20030;-75
2020/12/20 09:17:57;;;;;;;28.63;17.55;;;5.40;99.90;;;;;;5026904;28;20064;-75
2020/12/20 09:20:25;;;;;;;31.30;18.17;;;5.40;99.90;;;;;;5024305;28;20033;-77
2020/12/20 09:23:00;;;;;;;31.00;18.10;;;5.40;99.90;;;;;;5059009;28;20112;-75
2020/12/20 09:25:34;;;;;;;28.17;17.63;;;5.50;99.90;;;;;;5025761;28;20025;-75
2020/12/20 09:28:12;;;;;;;33.85;19.42;;;5.50;99.90;;;;;;5028560;28;20034;-75
2020/12/20 09:30:44;;;;;;;31.70;19.42;;;5.50;99.90;;;;;;5058783;28;20526;-75
2020/12/20 09:33:20;;;;;;;37.00;22.38;;;5.50;99.90;;;;;;5026180;28;20043;-75
2020/12/20 09:36:11;;;;;;;34.45;21.90;;;5.50;99.90;;;;;;5026980;28;20037;-74
2020/12/20 09:38:52;;;;;;;36.42;22.20;;;5.50;99.90;;;;;;5026985;28;20033;-75
2020/12/20 09:41:22;;;;;;;32.83;19.98;;;5.50;99.90;;;;;;5041207;28;20040;-75
2020/12/20 09:43:50;;;;;;;31.10;19.92;;;5.60;99.90;;;;;;5026319;28;20036;-75
2020/12/20 09:46:28;;;;;;;32.20;20.45;;;5.60;99.90;;;;;;5025590;28;20108;-75
2020/12/20 09:48:57;;;;;;;36.15;22.08;;;5.60;99.90;;;;;;5024734;28;20033;-75
2020/12/20 09:51:25;;;;;;;34.83;21.95;;;5.60;99.90;;;;;;5024555;28;20451;-75
2020/12/20 09:53:51;;;;;;;35.03;20.77;;;5.60;99.90;;;;;;5044313;28;20034;-75
2020/12/20 09:56:19;;;;;;;34.03;21.38;;;5.70;99.90;;;;;;5042804;28;20022;-75
2020/12/20 09:58:45;;;;;;;47.08;24.70;;;5.70;99.90;;;;;;5027608;28;20121;-75
2020/12/20 10:01:21;;;;;;;41.70;22.67;;;5.70;99.90;;;;;;5027267;28;20018;-75
2020/12/20 10:03:52;;;;;;;40.90;23.60;;;5.70;99.90;;;;;;5043440;28;20068;-75
2020/12/20 10:06:20;;;;;;;38.45;21.98;;;5.60;99.90;;;;;;5042206;28;20083;-73
2020/12/20 10:08:48;;;;;;;36.40;21.27;;;5.60;99.90;;;;;;5025514;28;20410;-73
2020/12/20 10:11:17;;;;;;;32.83;20.38;;;5.60;99.90;;;;;;5041572;28;20032;-76
2020/12/20 10:13:48;;;;;;;46.83;24.55;;;5.60;99.90;;;;;;5025631;28;20033;-75
2020/12/20 10:16:19;;;;;;;45.08;23.35;;;5.60;99.90;;;;;;5026694;28;20043;-75
2020/12/20 10:18:45;;;;;;;38.42;21.80;;;5.60;99.90;;;;;;5024334;28;20032;-75
2020/12/20 10:21:17;;;;;;;36.17;21.52;;;5.60;99.90;;;;;;5026433;28;20029;-75
2020/12/20 10:23:43;;;;;;;36.83;20.33;;;5.70;99.90;;;;;;5023999;28;20025;-75
2020/12/20 10:26:12;;;;;;;46.88;23.67;;;5.70;99.90;;;;;;5026188;28;20040;-75
2020/12/20 10:28:41;;;;;;;49.00;23.63;;;5.70;99.90;;;;;;5025955;28;20045;-74
2020/12/20 10:31:06;;;;;;;41.30;22.73;;;5.70;99.90;;;;;;5025002;28;20026;-75
2020/12/20 10:33:37;;;;;;;37.55;21.33;;;5.70;99.90;;;;;;5030513;28;20029;-75
2020/12/20 10:36:07;;;;;;;41.25;22.92;;;5.70;99.90;;;;;;5029507;28;20026;-74
2020/12/20 10:38:33;;;;;;;38.03;21.85;;;5.70;99.90;;;;;;5029232;28;20018;-75
2020/12/20 10:41:01;;;;;;;40.13;21.75;;;5.70;99.90;;;;;;5029724;28;20451;-74
2020/12/20 10:43:28;;;;;;;36.97;20.70;;;5.70;99.90;;;;;;5030010;28;20030;-74
2020/12/20 10:45:56;;;;;;;47.15;24.30;;;5.80;99.90;;;;;;5027500;28;20083;-75
2020/12/20 10:48:22;;;;;;;41.97;23.48;;;5.80;99.90;;;;;;5029138;28;20045;-75
2020/12/20 10:50:53;;;;;;;38.72;21.85;;;5.80;99.90;;;;;;5028344;28;20025;-75
2020/12/20 10:53:18;;;;;;;39.47;23.10;;;5.80;99.90;;;;;;5030038;28;20417;-74
2020/12/20 10:55:44;;;;;;;49.35;26.95;;;5.90;99.90;;;;;;5029395;28;20033;-75
2020/12/20 10:58:09;;;;;;;48.72;25.98;;;5.80;99.90;;;;;;5030413;28;20593;-75
2020/12/20 11:00:35;;;;;;;46.25;24.67;;;5.80;99.90;;;;;;5029055;28;20021;-75
2020/12/20 11:03:01;;;;;;;38.55;22.27;;;5.70;99.90;;;;;;5030115;28;20029;-74
2020/12/20 11:05:28;;;;;;;39.63;20.16;;;5.80;99.90;;;;;;4681399;28;10001138;-74
2020/12/20 11:07:53;;;;;;;39.58;21.80;;;5.80;99.90;;;;;;5007853;28;20017;-75
2020/12/20 11:10:21;;;;;;;40.85;21.35;;;5.80;99.90;;;;;;5023955;28;20095;-75
2020/12/20 11:12:47;;;;;;;39.40;21.45;;;5.90;99.90;;;;;;5026544;28;20041;-75
2020/12/20 11:15:12;;;;;;;46.83;24.10;;;5.90;99.90;;;;;;5027285;28;20025;-75
2020/12/20 11:17:38;;;;;;;51.53;24.05;;;5.90;99.90;;;;;;5024387;28;20021;-75
2020/12/20 11:20:04;;;;;;;72.18;28.27;;;5.90;99.90;;;;;;5025937;28;20029;-75
2020/12/20 11:22:29;;;;;;;51.53;26.08;;;5.80;99.90;;;;;;5025366;28;20414;-75
2020/12/20 11:24:55;;;;;;;52.90;24.92;;;5.80;99.90;;;;;;5023760;28;20123;-75
2020/12/20 11:27:21;;;;;;;49.30;23.58;;;5.80;99.90;;;;;;5043453;28;20036;-75
2020/12/20 11:29:48;;;;;;;49.55;24.23;;;5.80;99.90;;;;;;5022458;28;20108;-74
2020/12/20 11:32:14;;;;;;;46.72;24.35;;;5.90;99.90;;;;;;5025423;28;20037;-74
2020/12/20 11:34:45;;;;;;;45.35;25.33;;;5.90;99.90;;;;;;5024276;28;20034;-74
2020/12/20 11:37:15;;;;;;;43.72;23.67;;;5.90;99.90;;;;;;5056782;28;20070;-77
2020/12/20 11:39:43;;;;;;;88.18;29.48;;;6.00;99.90;;;;;;5021387;28;20606;-76
2020/12/20 11:42:10;;;;;;;48.78;24.05;;;6.00;99.90;;;;;;5024792;28;20029;-75
2020/12/20 11:44:36;;;;;;;59.83;27.40;;;6.00;99.90;;;;;;5022166;28;20034;-75
2020/12/20 11:47:02;;;;;;;42.38;23.42;;;6.00;99.90;;;;;;5026877;28;20056;-76
2020/12/20 11:49:27;;;;;;;47.70;23.83;;;6.10;99.90;;;;;;5023218;28;20025;-75
2020/12/20 11:51:55;;;;;;;62.65;25.50;;;6.10;99.90;;;;;;5025001;28;20021;-76
2020/12/20 11:54:21;;;;;;;65.50;27.35;;;6.10;99.90;;;;;;5004014;28;20175;-75
2020/12/20 11:56:47;;;;;;;52.83;25.98;;;6.10;99.90;;;;;;5055062;28;20120;-75
2020/12/20 11:59:12;;;;;;;52.63;25.35;;;6.10;99.90;;;;;;5025654;28;20029;-75
2020/12/20 12:01:40;;;;;;;56.15;25.02;;;6.10;99.90;;;;;;5024822;28;20045;-75
2020/12/20 12:04:06;;;;;;;55.50;25.67;;;6.20;99.90;;;;;;5027578;28;20046;-75
2020/12/20 12:06:32;;;;;;;47.00;23.65;;;6.20;99.90;;;;;;5028153;28;20040;-75
2020/12/20 12:09:00;;;;;;;76.57;28.25;;;6.20;99.90;;;;;;5010306;28;20029;-75
2020/12/20 12:11:30;;;;;;;71.53;30.23;;;6.20;99.90;;;;;;5057032;28;20033;-75
2020/12/20 12:14:00;;;;;;;69.25;29.95;;;6.20;99.90;;;;;;5027982;28;20025;-75
2020/12/20 12:16:28;;;;;;;57.08;27.48;;;6.20;99.90;;;;;;5027225;28;20017;-76
2020/12/20 12:18:56;;;;;;;48.40;24.48;;;6.20;99.90;;;;;;5028032;28;20037;-75
2020/12/20 12:21:22;;;;;;;66.15;27.83;;;6.10;99.90;;;;;;5028526;28;20108;-75
2020/12/20 12:23:52;;;;;;;45.65;24.95;;;6.20;99.90;;;;;;5026593;28;20116;-76
2020/12/20 12:26:18;;;;;;;64.35;26.95;;;6.20;99.90;;;;;;5025303;28;20018;-75
2020/12/20 12:28:48;;;;;;;117.85;27.38;;;6.20;99.90;;;;;;5028073;28;20156;-73
2020/12/20 12:31:14;;;;;;;124.70;29.52;;;6.30;99.90;;;;;;5027322;28;20056;-75
2020/12/20 12:33:44;;;;;;;50.90;25.08;;;6.20;99.90;;;;;;5026351;28;20425;-75
2020/12/20 12:36:10;;;;;;;61.70;24.45;;;6.20;99.90;;;;;;5025887;28;20104;-75
2020/12/20 12:38:41;;;;;;;83.90;23.98;;;6.20;99.90;;;;;;5025184;28;20025;-75
2020/12/20 12:41:09;;;;;;;57.35;24.65;;;6.20;99.90;;;;;;5025607;28;20049;-74
2020/12/20 12:43:40;;;;;;;86.50;25.10;;;6.20;99.90;;;;;;5023589;28;20072;-74
2020/12/20 12:46:05;;;;;;;256.00;28.98;;;6.20;99.90;;;;;;5026223;28;20029;-75